createdAt,value
2022-11-16T00:01:26.760Z,5.86
2022-11-16T00:03:54.099Z,5.87
2022-11-16T00:06:21.131Z,5.87
2022-11-16T00:09:07.106Z,5.86
2022-11-16T00:11:33.944Z,5.85
2022-11-16T00:14:00.483Z,5.83
2022-11-16T00:16:26.935Z,5.82
2022-11-16T00:18:57.456Z,5.82
2022-11-16T00:21:24.286Z,5.83
2022-11-16T00:23:50.767Z,5.78
2022-11-16T00:26:17.173Z,5.76
2022-11-16T00:28:43.576Z,5.77
2022-11-16T00:31:10.579Z,5.78
2022-11-16T00:33:37.329Z,5.81
2022-11-16T00:36:05.002Z,5.82
2022-11-16T00:38:31.797Z,5.78
2022-11-16T00:40:58.701Z,5.77
2022-11-16T00:43:25.137Z,5.79
2022-11-16T00:45:51.594Z,5.76
2022-11-16T00:48:18.296Z,5.75
2022-11-16T00:50:45.229Z,5.75
2022-11-16T00:53:15.998Z,5.78
2022-11-16T00:55:43.506Z,5.78
2022-11-16T00:58:10.224Z,5.80
2022-11-16T01:00:36.654Z,5.82
2022-11-16T01:03:03.185Z,5.84
2022-11-16T01:05:29.759Z,5.84
2022-11-16T01:07:56.249Z,5.85
2022-11-16T01:10:23.504Z,5.86
2022-11-16T01:12:50.607Z,5.85
2022-11-16T01:15:18.094Z,5.85
2022-11-16T01:17:44.893Z,5.84
2022-11-16T01:20:16.383Z,5.85
2022-11-16T01:22:43.190Z,5.86
2022-11-16T01:25:10.341Z,5.85
2022-11-16T01:27:36.907Z,5.85
2022-11-16T01:30:03.930Z,5.83
2022-11-16T01:32:30.393Z,5.82
2022-11-16T01:34:56.912Z,5.82
2022-11-16T01:37:23.381Z,5.84
2022-11-16T01:39:50.452Z,5.84
2022-11-16T01:42:18.704Z,5.88
2022-11-16T01:44:45.082Z,5.91
2022-11-16T01:47:12.778Z,5.95
2022-11-16T01:49:49.943Z,5.94
2022-11-16T01:52:24.687Z,5.93
2022-11-16T01:54:52.365Z,5.94
2022-11-16T01:57:21.479Z,5.96
2022-11-16T01:59:49.843Z,5.94
2022-11-16T02:02:16.576Z,5.94
2022-11-16T02:04:43.817Z,5.93
2022-11-16T02:07:52.906Z,5.95
2022-11-16T02:10:31.656Z,5.95
2022-11-16T02:13:11.608Z,5.87
2022-11-16T02:15:42.981Z,5.84
2022-11-16T02:18:28.021Z,5.87
2022-11-16T02:21:13.280Z,5.93
2022-11-16T02:23:39.682Z,5.96
2022-11-16T02:26:12.029Z,5.97
2022-11-16T02:28:57.205Z,5.97
2022-11-16T02:31:27.860Z,5.99
2022-11-16T02:33:56.275Z,6.01
2022-11-16T02:36:24.103Z,6.04
2022-11-16T02:38:57.058Z,6.05
2022-11-16T02:41:25.379Z,6.06
2022-11-16T02:44:01.668Z,6.10
2022-11-16T02:46:30.478Z,6.10
2022-11-16T02:48:59.087Z,6.11
2022-11-16T02:51:27.362Z,6.13
2022-11-16T02:54:12.759Z,6.12
2022-11-16T02:56:41.978Z,6.14
2022-11-16T02:59:12.139Z,6.14
2022-11-16T03:01:43.453Z,6.14
2022-11-16T03:04:16.423Z,6.13
2022-11-16T03:06:45.475Z,6.09
2022-11-16T03:09:21.454Z,6.09
2022-11-16T03:11:59.739Z,6.11
2022-11-16T03:14:33.974Z,6.12
2022-11-16T03:17:01.113Z,6.16
2022-11-16T03:19:47.757Z,6.20
2022-11-16T03:22:15.802Z,6.22
2022-11-16T03:24:42.431Z,6.21
2022-11-16T03:27:15.212Z,6.21
2022-11-16T03:29:52.275Z,6.22
2022-11-16T03:32:21.724Z,6.26
2022-11-16T03:34:56.600Z,6.29
2022-11-16T03:37:23.806Z,6.29
2022-11-16T03:39:51.862Z,6.27
2022-11-16T03:42:20.556Z,6.28
2022-11-16T03:44:48.462Z,6.30
2022-11-16T03:47:15.195Z,6.30
2022-11-16T03:49:45.776Z,6.30
2022-11-16T03:52:12.793Z,6.26
2022-11-16T03:54:39.181Z,6.26
2022-11-16T03:57:05.677Z,6.26
2022-11-16T03:59:32.198Z,6.27
2022-11-16T04:01:58.572Z,6.26
2022-11-16T04:04:43.390Z,6.26
2022-11-16T04:07:28.305Z,6.25
2022-11-16T04:10:13.406Z,6.25
2022-11-16T04:13:01.400Z,6.29
2022-11-16T04:15:46.213Z,6.33
2022-11-16T04:18:31.553Z,6.37
2022-11-16T04:21:17.112Z,6.39
2022-11-16T04:24:02.686Z,6.39
2022-11-16T04:26:57.963Z,6.37
2022-11-16T04:29:24.964Z,6.38
2022-11-16T04:32:09.757Z,6.39
2022-11-16T04:34:54.611Z,6.42
2022-11-16T04:37:39.442Z,6.43
2022-11-16T04:40:06.212Z,6.42
2022-11-16T04:42:32.596Z,6.41
2022-11-16T04:45:17.828Z,6.41
2022-11-16T04:47:44.266Z,6.42
2022-11-16T04:50:10.713Z,6.45
2022-11-16T04:52:37.141Z,6.46
2022-11-16T04:55:03.651Z,6.46
2022-11-16T04:57:30.019Z,6.41
2022-11-16T04:59:56.746Z,6.42
2022-11-16T05:02:23.108Z,6.44
2022-11-16T05:04:49.601Z,6.46
2022-11-16T05:07:16.059Z,6.46
2022-11-16T05:09:43.880Z,6.44
2022-11-16T05:12:11.430Z,6.47
2022-11-16T05:14:37.846Z,6.47
2022-11-16T05:17:04.260Z,6.49
2022-11-16T05:19:49.087Z,6.49
2022-11-16T05:22:15.471Z,6.49
2022-11-16T05:24:41.955Z,6.51
2022-11-16T05:27:10.353Z,6.51
2022-11-16T05:29:37.029Z,6.52
2022-11-16T05:32:03.695Z,6.54
2022-11-16T05:34:30.092Z,6.52
2022-11-16T05:36:57.045Z,6.52
2022-11-16T05:39:23.837Z,6.52
2022-11-16T05:41:50.582Z,6.53
2022-11-16T05:44:17.884Z,6.49
2022-11-16T05:46:44.710Z,6.43
2022-11-16T05:49:12.000Z,6.42
2022-11-16T05:51:39.147Z,6.48
2022-11-16T05:54:06.060Z,6.45
2022-11-16T05:56:32.986Z,6.45
2022-11-16T05:58:59.508Z,6.49
2022-11-16T06:01:26.264Z,6.49
2022-11-16T06:03:52.885Z,6.48
2022-11-16T06:06:20.144Z,6.48
2022-11-16T06:08:46.997Z,6.51
2022-11-16T06:11:13.689Z,6.55
2022-11-16T06:13:40.084Z,6.58
2022-11-16T06:16:25.157Z,6.60
2022-11-16T06:18:51.613Z,6.60
2022-11-16T06:21:19.341Z,6.60
2022-11-16T06:23:45.983Z,6.62
2022-11-16T06:26:12.726Z,6.61
2022-11-16T06:28:39.216Z,6.58
2022-11-16T06:31:05.996Z,6.56
2022-11-16T06:33:33.904Z,6.58
2022-11-16T06:36:00.547Z,6.62
2022-11-16T06:38:27.392Z,6.64
2022-11-16T06:40:54.880Z,6.63
2022-11-16T06:43:21.819Z,6.63
2022-11-16T06:45:51.866Z,6.66
2022-11-16T06:48:18.735Z,6.66
2022-11-16T06:50:45.341Z,6.67
2022-11-16T06:53:11.722Z,6.67
2022-11-16T06:55:38.108Z,6.69
2022-11-16T06:58:04.627Z,6.68
2022-11-16T07:00:31.097Z,6.67
2022-11-16T07:02:57.554Z,6.70
2022-11-16T07:05:23.939Z,6.72
2022-11-16T07:07:53.952Z,6.75
2022-11-16T07:10:20.325Z,6.76
2022-11-16T07:12:46.732Z,6.79
2022-11-16T07:15:13.099Z,6.80
2022-11-16T07:17:39.745Z,6.82
2022-11-16T07:20:06.385Z,6.81
2022-11-16T07:22:32.839Z,6.78
2022-11-16T07:24:59.240Z,6.74
2022-11-16T07:27:25.613Z,6.74
2022-11-16T07:29:51.985Z,6.77
2022-11-16T07:32:18.469Z,6.81
2022-11-16T07:34:44.884Z,6.84
2022-11-16T07:37:11.304Z,6.81
2022-11-16T07:39:37.686Z,6.78
2022-11-16T07:42:04.211Z,6.77
2022-11-16T07:44:30.589Z,6.78
2022-11-16T07:46:57.176Z,6.78
2022-11-16T07:49:23.566Z,6.72
2022-11-16T07:51:49.979Z,6.71
2022-11-16T07:54:16.522Z,6.72
2022-11-16T07:56:42.939Z,6.77
2022-11-16T07:59:09.482Z,6.80
2022-11-16T08:01:36.028Z,6.88
2022-11-16T08:04:02.752Z,6.92
2022-11-16T08:06:30.236Z,6.90
2022-11-16T08:08:58.687Z,6.88
2022-11-16T08:11:25.572Z,6.84
2022-11-16T08:13:51.988Z,6.83
2022-11-16T08:16:19.483Z,6.84
2022-11-16T08:18:46.207Z,6.90
2022-11-16T08:21:13.923Z,6.94
2022-11-16T08:23:40.647Z,6.98
2022-11-16T08:26:09.380Z,7.02
2022-11-16T08:28:36.731Z,7.07
2022-11-16T08:31:10.543Z,7.08
2022-11-16T08:33:36.995Z,7.09
2022-11-16T08:36:08.146Z,7.08
2022-11-16T08:38:37.452Z,7.08
2022-11-16T08:41:03.878Z,7.09
2022-11-16T08:43:31.109Z,7.10
2022-11-16T08:45:58.589Z,7.15
2022-11-16T08:48:24.958Z,7.15
2022-11-16T08:51:15.828Z,7.17
2022-11-16T08:53:37.767Z,7.19
2022-11-16T08:56:08.850Z,7.22
2022-11-16T08:58:36.239Z,7.22
2022-11-16T09:01:10.142Z,7.28
2022-11-16T09:03:37.893Z,7.26
2022-11-16T09:06:04.554Z,7.25
2022-11-16T09:08:31.740Z,7.24
2022-11-16T09:10:58.421Z,7.31
2022-11-16T09:13:25.279Z,7.40
2022-11-16T09:15:59.094Z,7.46
2022-11-16T09:18:25.570Z,7.51
2022-11-16T09:20:52.138Z,7.55
2022-11-16T09:23:24.883Z,7.54
2022-11-16T09:25:51.684Z,7.50
2022-11-16T09:28:18.711Z,7.40
2022-11-16T09:30:46.460Z,7.38
2022-11-16T09:33:13.414Z,7.31
2022-11-16T09:35:40.239Z,7.30
2022-11-16T09:38:07.099Z,7.29
2022-11-16T09:40:37.849Z,7.28
2022-11-16T09:43:16.291Z,7.30
2022-11-16T09:45:46.174Z,7.33
2022-11-16T09:48:14.805Z,7.38
2022-11-16T09:50:49.579Z,7.38
2022-11-16T09:53:19.023Z,7.38
2022-11-16T09:55:53.284Z,7.42
2022-11-16T09:58:33.276Z,7.48
2022-11-16T10:01:18.330Z,7.56
2022-11-16T10:03:49.251Z,7.60
2022-11-16T10:06:23.338Z,7.65
2022-11-16T10:08:53.887Z,7.68
2022-11-16T10:11:35.241Z,7.71
2022-11-16T10:14:20.096Z,7.73
2022-11-16T10:16:53.318Z,7.75
2022-11-16T10:19:22.496Z,7.78
2022-11-16T10:21:48.821Z,7.74
2022-11-16T10:24:18.202Z,7.66
2022-11-16T10:26:59.540Z,7.58
2022-11-16T10:29:43.137Z,7.56
2022-11-16T10:32:22.457Z,7.60
2022-11-16T10:34:53.617Z,7.64
2022-11-16T10:37:20.871Z,7.69
2022-11-16T10:39:49.301Z,7.72
2022-11-16T10:42:18.810Z,7.76
2022-11-16T10:44:47.703Z,7.79
2022-11-16T10:47:21.050Z,7.81
2022-11-16T10:49:58.345Z,7.80
2022-11-16T10:52:25.362Z,7.80
2022-11-16T10:54:52.105Z,7.81
2022-11-16T10:57:18.748Z,7.79
2022-11-16T10:59:49.042Z,7.75
2022-11-16T11:02:35.745Z,7.77
2022-11-16T11:05:02.412Z,7.81
2022-11-16T11:07:39.899Z,7.82
2022-11-16T11:10:21.735Z,7.77
2022-11-16T11:13:01.333Z,7.72
2022-11-16T11:15:27.736Z,7.71
2022-11-16T11:18:12.203Z,7.71
2022-11-16T11:20:44.840Z,7.75
2022-11-16T11:23:17.343Z,7.79
2022-11-16T11:26:10.100Z,7.77
2022-11-16T11:28:38.463Z,7.80
2022-11-16T11:31:07.627Z,7.82
2022-11-16T11:33:53.952Z,7.84
2022-11-16T11:36:21.679Z,7.81
2022-11-16T11:39:01.939Z,7.79
2022-11-16T11:41:32.388Z,7.85
2022-11-16T11:44:18.222Z,7.91
2022-11-16T11:49:49.888Z,7.96
2022-11-16T11:52:21.862Z,7.94
2022-11-16T11:54:50.590Z,7.96
2022-11-16T11:57:23.101Z,7.93
2022-11-16T11:59:51.584Z,7.95
2022-11-16T12:02:26.836Z,8.00
2022-11-16T12:05:21.692Z,8.05
2022-11-16T12:07:50.085Z,8.10
2022-11-16T12:10:22.849Z,8.15
2022-11-16T12:12:55.062Z,8.18
2022-11-16T12:15:24.512Z,8.22
2022-11-16T12:18:06.103Z,8.20
2022-11-16T12:20:38.648Z,8.20
2022-11-16T12:23:11.221Z,8.21
2022-11-16T12:25:45.859Z,8.23
2022-11-16T12:28:20.430Z,8.25
2022-11-16T12:30:49.549Z,8.18
2022-11-16T12:33:23.526Z,8.13
2022-11-16T12:36:08.398Z,8.12
2022-11-16T12:38:37.825Z,8.12
2022-11-16T12:41:04.214Z,8.14
2022-11-16T12:43:49.297Z,8.13
2022-11-16T12:46:38.081Z,8.11
2022-11-16T12:49:07.551Z,8.08
2022-11-16T12:51:52.664Z,8.11
2022-11-16T12:54:28.313Z,8.11
2022-11-16T12:57:04.141Z,8.10
2022-11-16T12:59:50.731Z,8.13
2022-11-16T13:02:27.758Z,8.13
2022-11-16T13:05:04.423Z,8.12
2022-11-16T13:07:39.741Z,8.10
2022-11-16T13:10:43.066Z,8.11
2022-11-16T13:13:35.489Z,8.13
2022-11-16T13:16:02.055Z,8.16
2022-11-16T13:18:29.823Z,8.18
2022-11-16T13:21:01.618Z,8.13
2022-11-16T13:23:39.394Z,8.14
2022-11-16T13:26:23.942Z,8.11
2022-11-16T13:28:50.639Z,8.11
2022-11-16T13:31:20.752Z,8.12
2022-11-16T13:33:51.227Z,8.12
2022-11-16T13:36:43.399Z,8.08
2022-11-16T13:39:11.376Z,8.07
2022-11-16T13:41:38.905Z,8.02
2022-11-16T13:44:11.206Z,8.03
2022-11-16T13:47:01.022Z,8.03
2022-11-16T13:49:30.172Z,8.08
2022-11-16T13:52:07.036Z,8.09
2022-11-16T13:54:48.695Z,8.02
2022-11-16T13:57:23.647Z,7.96
2022-11-16T13:59:53.090Z,7.92
2022-11-16T14:02:29.908Z,7.94
2022-11-16T14:05:01.507Z,7.95
2022-11-16T14:07:29.692Z,7.95
2022-11-16T14:09:56.172Z,7.98
2022-11-16T14:12:37.556Z,7.99
2022-11-16T14:15:13.259Z,7.99
2022-11-16T14:17:58.381Z,7.97
2022-11-16T14:20:29.992Z,7.99
2022-11-16T14:23:14.644Z,8.01
2022-11-16T14:25:59.890Z,8.06
2022-11-16T14:28:45.107Z,8.12
2022-11-16T14:31:25.630Z,8.10
2022-11-16T14:33:53.266Z,8.05
2022-11-16T14:36:34.779Z,8.04
2022-11-16T14:39:20.003Z,8.05
2022-11-16T14:41:47.273Z,8.05
2022-11-16T14:44:17.585Z,8.02
2022-11-16T14:46:44.631Z,8.02
2022-11-16T14:49:16.263Z,7.99
2022-11-16T14:51:45.071Z,7.99
2022-11-16T14:54:14.621Z,7.96
2022-11-16T14:56:59.974Z,7.94
2022-11-16T14:59:26.689Z,7.96
2022-11-16T15:01:53.413Z,7.88
2022-11-16T15:04:20.749Z,7.86
2022-11-16T15:07:02.287Z,7.89
2022-11-16T15:09:30.408Z,7.91
2022-11-16T15:12:15.976Z,7.92
2022-11-16T15:14:50.913Z,7.95
2022-11-16T15:17:18.838Z,8.00
2022-11-16T15:19:53.321Z,8.01
2022-11-16T15:22:19.991Z,8.03
2022-11-16T15:24:53.387Z,8.07
2022-11-16T15:27:34.856Z,8.10
2022-11-16T15:30:12.834Z,8.08
2022-11-16T15:32:42.968Z,8.08
2022-11-16T15:35:15.683Z,8.07
2022-11-16T15:37:42.151Z,8.10
2022-11-16T15:40:09.459Z,8.08
2022-11-16T15:42:37.172Z,8.08
2022-11-16T15:45:14.381Z,8.08
2022-11-16T15:47:42.513Z,8.13
2022-11-16T15:50:16.597Z,8.17
2022-11-16T15:52:43.792Z,8.18
2022-11-16T15:55:39.687Z,8.17
2022-11-16T15:58:14.600Z,8.15
2022-11-16T16:00:41.174Z,8.16
2022-11-16T16:03:19.541Z,8.17
2022-11-16T16:05:46.326Z,8.17
2022-11-16T16:08:26.853Z,8.16
2022-11-16T16:11:12.181Z,8.13
2022-11-16T16:13:40.210Z,8.12
2022-11-16T16:16:26.149Z,8.10
2022-11-16T16:18:53.717Z,8.12
2022-11-16T16:21:20.106Z,8.13
2022-11-16T16:23:48.449Z,8.19
2022-11-16T16:26:15.259Z,8.23
2022-11-16T16:28:41.727Z,8.25
2022-11-16T16:31:08.615Z,8.28
2022-11-16T16:33:35.566Z,8.28
2022-11-16T16:36:02.464Z,8.28
2022-11-16T16:38:29.296Z,8.27
2022-11-16T16:41:02.728Z,8.25
2022-11-16T16:43:29.713Z,8.23
2022-11-16T16:45:56.601Z,8.21
2022-11-16T16:48:23.067Z,8.19
2022-11-16T16:50:49.485Z,8.21
2022-11-16T16:53:15.934Z,8.20
2022-11-16T16:55:42.976Z,8.21
2022-11-16T16:58:13.322Z,8.24
2022-11-16T17:00:40.815Z,8.26
2022-11-16T17:03:07.241Z,8.28
2022-11-16T17:05:34.056Z,8.29
2022-11-16T17:08:00.938Z,8.25
2022-11-16T17:10:27.398Z,8.17
2022-11-16T17:12:54.158Z,8.15
2022-11-16T17:15:20.544Z,8.16
2022-11-16T17:17:47.277Z,8.18
2022-11-16T17:20:13.912Z,8.19
2022-11-16T17:22:41.899Z,8.21
2022-11-16T17:25:09.115Z,8.23
2022-11-16T17:27:35.538Z,8.20
2022-11-16T17:30:02.010Z,8.20
2022-11-16T17:32:28.386Z,8.21
2022-11-16T17:34:54.776Z,8.22
2022-11-16T17:37:21.181Z,8.23
2022-11-16T17:39:47.642Z,8.23
2022-11-16T17:42:14.085Z,8.24
2022-11-16T17:44:40.508Z,8.24
2022-11-16T17:47:07.489Z,8.26
2022-11-16T17:49:33.887Z,8.28
2022-11-16T17:52:01.368Z,8.24
2022-11-16T17:54:27.751Z,8.23
2022-11-16T17:56:54.203Z,8.20
2022-11-16T17:59:23.789Z,8.20
2022-11-16T18:01:52.883Z,8.20
2022-11-16T18:04:19.335Z,8.20
2022-11-16T18:06:45.748Z,8.21
2022-11-16T18:09:12.296Z,8.23
2022-11-16T18:11:39.805Z,8.23
2022-11-16T18:14:06.270Z,8.23
2022-11-16T18:16:33.075Z,8.20
2022-11-16T18:19:00.736Z,8.16
2022-11-16T18:21:27.322Z,8.15
2022-11-16T18:23:54.076Z,8.16
2022-11-16T18:26:21.560Z,8.17
2022-11-16T18:28:48.686Z,8.17
2022-11-16T18:31:16.171Z,8.12
2022-11-16T18:33:43.058Z,8.12
2022-11-16T18:36:10.217Z,8.12
2022-11-16T18:38:37.481Z,8.10
2022-11-16T18:41:05.138Z,7.91
2022-11-16T18:43:32.132Z,7.78
2022-11-16T18:45:58.662Z,7.67
2022-11-16T18:48:25.052Z,7.47
2022-11-16T18:50:51.559Z,7.38
2022-11-16T18:53:17.926Z,7.34
2022-11-16T18:55:52.402Z,7.28
2022-11-16T18:58:48.804Z,7.25
2022-11-16T19:01:11.514Z,7.35
2022-11-16T19:03:38.003Z,7.40
2022-11-16T19:06:09.105Z,7.47
2022-11-16T19:08:36.342Z,7.52
2022-11-16T19:11:03.791Z,7.56
2022-11-16T19:13:30.175Z,7.54
2022-11-16T19:15:56.598Z,7.54
2022-11-16T19:18:23.061Z,7.53
2022-11-16T19:20:49.510Z,7.46
2022-11-16T19:23:15.859Z,7.32
2022-11-16T19:25:42.297Z,7.17
2022-11-16T19:28:08.717Z,7.02
2022-11-16T19:30:35.148Z,6.99
2022-11-16T19:33:01.990Z,6.94
2022-11-16T19:35:28.373Z,6.92
2022-11-16T19:37:54.823Z,6.97
2022-11-16T19:40:24.998Z,7.01
2022-11-16T19:42:52.590Z,7.01
2022-11-16T19:45:19.005Z,7.10
2022-11-16T19:47:45.387Z,7.18
2022-11-16T19:50:11.930Z,7.26
2022-11-16T19:52:38.365Z,7.31
2022-11-16T19:55:04.972Z,7.38
2022-11-16T19:57:31.338Z,7.41
2022-11-16T19:59:57.788Z,7.45
2022-11-16T20:02:24.168Z,7.45
2022-11-16T20:04:50.564Z,7.46
2022-11-16T20:07:18.222Z,7.43
2022-11-16T20:09:48.113Z,7.35
2022-11-16T20:12:16.949Z,7.33
2022-11-16T20:14:43.545Z,7.28
2022-11-16T20:17:10.007Z,7.26
2022-11-16T20:19:36.426Z,7.31
2022-11-16T20:22:02.892Z,7.32
2022-11-16T20:24:29.245Z,7.31
2022-11-16T20:26:55.687Z,7.33
2022-11-16T20:29:22.138Z,7.35
2022-11-16T20:31:48.602Z,7.35
2022-11-16T20:34:16.289Z,7.34
2022-11-16T20:36:43.989Z,7.35
2022-11-16T20:39:14.553Z,7.34
2022-11-16T20:41:41.222Z,7.34
2022-11-16T20:44:15.971Z,7.35
2022-11-16T20:46:44.335Z,7.36
2022-11-16T20:49:11.015Z,7.36
2022-11-16T20:51:37.477Z,7.32
2022-11-16T20:54:04.002Z,7.29
2022-11-16T20:56:30.465Z,7.27
2022-11-16T20:58:58.208Z,7.23
2022-11-16T21:01:28.980Z,7.24
2022-11-16T21:03:56.288Z,7.18
2022-11-16T21:06:22.975Z,7.10
2022-11-16T21:08:49.395Z,7.04
2022-11-16T21:11:17.006Z,6.98
2022-11-16T21:14:03.209Z,6.92
2022-11-16T21:16:29.980Z,6.80
2022-11-16T21:18:56.532Z,6.62
2022-11-16T21:21:23.066Z,6.47
2022-11-16T21:23:53.673Z,6.43
2022-11-16T21:26:21.065Z,6.38
2022-11-16T21:28:47.546Z,6.39
2022-11-16T21:31:19.203Z,6.39
2022-11-16T21:33:45.918Z,6.42
2022-11-16T21:36:13.574Z,6.41
2022-11-16T21:38:40.058Z,6.43
2022-11-16T21:41:06.654Z,6.47
2022-11-16T21:43:35.654Z,6.45
2022-11-16T21:46:03.076Z,6.33
2022-11-16T21:48:31.365Z,6.21
2022-11-16T21:51:01.684Z,6.16
2022-11-16T21:53:28.118Z,6.13
2022-11-16T21:55:54.496Z,6.12
2022-11-16T21:58:20.872Z,6.09
2022-11-16T22:00:47.280Z,6.04
2022-11-16T22:03:13.666Z,6.09
2022-11-16T22:05:58.779Z,6.09
2022-11-16T22:08:25.166Z,6.09
2022-11-16T22:10:52.212Z,6.04
2022-11-16T22:13:19.210Z,6.06
2022-11-16T22:15:45.780Z,6.07
2022-11-16T22:18:12.610Z,5.98
2022-11-16T22:20:39.475Z,5.95
2022-11-16T22:23:05.949Z,5.99
2022-11-16T22:25:32.478Z,6.04
2022-11-16T22:28:19.606Z,6.00
2022-11-16T22:30:50.197Z,5.91
2022-11-16T22:33:18.301Z,5.90
2022-11-16T22:35:46.616Z,5.99
2022-11-16T22:38:13.040Z,6.01
2022-11-16T22:40:39.460Z,6.06
2022-11-16T22:43:05.896Z,6.04
2022-11-16T22:45:32.312Z,5.98
2022-11-16T22:47:58.718Z,5.95
2022-11-16T22:50:25.276Z,5.88
2022-11-16T22:52:51.675Z,5.85
2022-11-16T22:55:18.143Z,5.82
2022-11-16T22:57:44.605Z,5.80
2022-11-16T23:00:12.272Z,5.78
2022-11-16T23:02:38.686Z,5.68
2022-11-16T23:05:05.307Z,5.63
2022-11-16T23:07:31.872Z,5.55
2022-11-16T23:09:58.434Z,5.49
2022-11-16T23:12:43.588Z,5.54
2022-11-16T23:15:31.061Z,5.53
2022-11-16T23:17:57.796Z,5.50
2022-11-16T23:20:42.921Z,5.41
2022-11-16T23:23:37.325Z,5.27
2022-11-16T23:26:24.088Z,5.16
2022-11-16T23:28:50.538Z,5.10
2022-11-16T23:31:16.981Z,5.05
2022-11-16T23:33:46.451Z,5.06
2022-11-16T23:36:13.445Z,5.02
2022-11-16T23:38:40.111Z,5.02
2022-11-16T23:41:25.677Z,5.01
2022-11-16T23:43:57.815Z,4.97
2022-11-16T23:46:28.264Z,5.00
2022-11-16T23:48:54.734Z,5.01
2022-11-16T23:51:23.368Z,5.03
2022-11-16T23:53:53.593Z,5.02
2022-11-16T23:56:20.515Z,4.97
2022-11-16T23:58:47.430Z,4.94
